CST,Max TemperatureF,Mean TemperatureF,Min TemperatureF,Max Dew PointF,MeanDew PointF,Min DewpointF,Max Humidity, Mean Humidity, Min Humidity, Max Sea Level PressureIn, Mean Sea Level PressureIn, Min Sea Level PressureIn, Max VisibilityMiles, Mean VisibilityMiles, Min VisibilityMiles, Max Wind SpeedMPH, Mean Wind SpeedMPH, Max Gust SpeedMPH,PrecipitationIn, CloudCover, Events, WindDirDegrees
2014-2-1,13,-4,-20,5,-6,-25,84,75,65,30.00,29.90,29.83,10,10,7,14,2,21,0.00,6,Snow,252
2014-2-2,8,-4,-17,0,-8,-22,85,72,51,30.14,30.09,30.01,10,10,5,12,5,16,0.00,3,Snow,273
2014-2-3,19,-2,-22,9,-7,-28,90,74,62,30.22,30.13,30.06,10,10,7,12,3,20,0.00,1,,229
2014-2-4,15,-2,-19,3,-8,-26,84,71,50,30.33,30.29,30.22,10,10,5,8,1,,0.00,2,Snow,10
2014-2-5,5,0,-5,2,-4,-10,88,77,66,30.31,30.29,30.25,10,10,5,10,5,,0.00,7,Snow,337
2014-2-6,5,-4,-13,-9,-13,-18,81,70,49,30.24,30.11,30.01,10,10,10,15,5,22,0.00,1,,249
2014-2-7,10,1,-8,-6,-10,-14,81,64,44,30.05,29.97,29.92,10,10,7,16,9,23,0.00,2,Snow,241
2014-2-8,15,-4,-23,2,-11,-29,85,71,55,30.06,30.03,29.98,10,10,4,9,2,,0.00,2,Snow,234
2014-2-9,5,-6,-18,-1,-10,-24,86,74,59,30.17,30.07,30.00,10,9,2,14,3,18,0.00,5,Snow,306
2014-2-10,3,-11,-25,-10,-19,-30,80,70,52,30.31,30.24,30.16,10,10,5,9,2,16,0.00,4,Snow,297
2014-2-11,14,-6,-27,-4,-16,-35,75,59,38,30.32,30.19,29.99,10,10,10,15,4,23,0.00,1,,193
2014-2-12,21,13,5,7,4,-1,88,75,54,30.00,29.94,29.82,10,8,1,16,8,21,0.00,4,Snow,226
2014-2-13,17,12,7,15,10,5,93,86,79,29.81,29.52,29.36,10,6,0,14,8,21,0.00,6,Snow,170
2014-2-14,10,-5,-20,4,-3,-26,86,78,70,29.89,29.73,29.53,10,8,2,15,8,18,0.00,6,Snow,336
2014-2-15,18,-2,-23,13,-4,-29,91,77,52,29.92,29.87,29.79,10,7,1,12,2,,0.02,6,Snow,166
2014-2-16,17,4,-8,9,2,-12,89,75,56,30.16,30.08,29.89,10,10,5,9,5,,0.02,1,Snow,84
2014-2-17,23,16,9,20,14,4,93,85,76,30.11,29.80,29.66,10,6,1,17,11,28,0.00,8,Snow,166
2014-2-18,36,24,11,25,20,10,96,84,61,29.70,29.58,29.49,10,8,0,13,6,20,0.00,3,Fog,200
2014-2-19,39,20,0,24,13,-4,97,69,36,29.78,29.70,29.59,10,9,0,15,4,21,0.00,1,Fog,230
2014-2-20,37,32,26,31,25,17,100,78,53,29.79,29.49,28.94,10,8,0,15,7,26,0.36,6,Snow,116
2014-2-21,29,18,7,29,13,1,98,84,75,29.47,29.14,28.85,7,3,0,24,13,36,0.02,8,Snow,268
2014-2-22,13,8,3,4,0,-3,80,73,64,29.84,29.68,29.48,10,8,4,18,13,25,0.00,5,Snow,259
2014-2-23,14,6,-1,4,-1,-6,81,70,55,29.98,29.92,29.84,10,9,5,18,11,26,0.00,7,Snow,280
2014-2-24,12,2,-9,1,-5,-14,85,71,56,30.10,30.05,29.98,10,9,3,14,8,21,0.00,5,Snow,301
2014-2-25,3,-5,-13,-8,-12,-18,82,68,53,30.08,30.03,29.99,10,10,7,20,7,24,0.00,4,,298
2014-2-26,7,-3,-13,1,-11,-20,82,68,52,30.04,29.66,29.40,10,7,0,21,10,30,0.00,7,Snow,263
2014-2-27,-2,-15,-28,-10,-20,-35,78,64,38,30.01,29.90,29.60,10,7,1,18,10,28,0.00,4,Snow,310
2014-2-28,6,-11,-28,1,-14,-35,83,67,41,30.01,29.91,29.81,10,9,2,15,4,21,0.00,5,Snow,204